Time;durP1;ratioP1;P1;durP2;ratioP2;P2;SDS_P1;SDS_P2;PMS_P1;PMS_P2;Temp;Humidity;BMP_temperature;BMP_pressure;BME280_temperature;BME280_humidity;BME280_pressure;Samples;Min_cycle;Max_cycle;Signal;HPM_P1;HPM_P2
2022/06/20 00:01:10;;;;;;;;;;;14.00;99.90;;;;;;4842235;29;20023;-92
2022/06/20 00:03:43;;;;;;;;;;;14.00;99.90;;;;;;4841697;29;19928;-91
2022/06/20 00:06:17;;;;;;;;;;;13.90;99.90;;;;;;4841486;29;19975;-92
2022/06/20 00:08:47;;;;;;;;;;;13.90;99.90;;;;;;4842130;29;19924;-91
2022/06/20 00:11:20;;;;;;;;;;;13.90;99.90;;;;;;4840998;29;19920;-90
2022/06/20 00:13:48;;;;;;;;;;;13.90;99.90;;;;;;4842100;29;19924;-91
2022/06/20 00:16:17;;;;;;;;;;;13.70;99.90;;;;;;4840759;29;19930;-91
2022/06/20 00:18:44;;;;;;;;;;;13.90;99.90;;;;;;4842805;29;19954;-92
2022/06/20 00:21:14;;;;;;;;;;;13.80;99.90;;;;;;4841093;29;19951;-91
2022/06/20 00:23:46;;;;;;;;;;;13.80;99.90;;;;;;4841263;29;19936;-90
2022/06/20 00:26:20;;;;;;;;;;;13.80;99.90;;;;;;4841647;29;19992;-91
2022/06/20 00:28:49;;;;;;;;;;;13.70;99.90;;;;;;4841907;29;20384;-91
2022/06/20 00:31:19;;;;;;;;;;;13.70;99.90;;;;;;4826298;29;20003;-90
2022/06/20 00:33:45;;;;;;;;;;;13.70;99.90;;;;;;4826812;29;19928;-91
2022/06/20 00:36:17;;;;;;;;;;;13.70;99.90;;;;;;4825373;29;20456;-91
2022/06/20 00:38:51;;;;;;;;;;;13.70;99.90;;;;;;4826572;29;19924;-89
2022/06/20 00:41:21;;;;;;;;;;;13.60;99.90;;;;;;4826818;29;19931;-91
2022/06/20 00:43:53;;;;;;;;;;;13.50;99.90;;;;;;4826462;29;19931;-91
2022/06/20 00:46:25;;;;;;;;;;;13.60;99.90;;;;;;4825384;29;20058;-90
2022/06/20 00:48:55;;;;;;;;;;;13.30;99.90;;;;;;4826697;29;19927;-91
2022/06/20 00:51:25;;;;;;;;;;;13.50;99.90;;;;;;4824771;29;19928;-91
2022/06/20 00:53:55;;;;;;;;;;;13.50;99.90;;;;;;4827587;29;19934;-91
2022/06/20 00:56:24;;;;;;;;;;;13.50;99.90;;;;;;4859266;29;19956;-91
2022/06/20 00:58:54;;;;;;;;;;;13.40;99.90;;;;;;4844000;29;20376;-90
2022/06/20 01:01:26;;;;;;;;;;;13.30;99.90;;;;;;4844239;29;19927;-90
2022/06/20 01:03:53;;;;;;;;;;;13.40;99.90;;;;;;4844401;29;19928;-91
2022/06/20 01:06:33;;;;;;;;;;;13.40;99.90;;;;;;4842639;29;20057;-91
2022/06/20 01:09:05;;;;;;;;;;;13.30;99.90;;;;;;4844004;29;19924;-91
2022/06/20 01:11:37;;;;;;;;;;;13.40;99.90;;;;;;4844318;29;19928;-91
2022/06/20 01:14:22;;;;;;;;;;;13.30;99.90;;;;;;4843510;29;19924;-90
2022/06/20 01:16:52;;;;;;;;;;;13.30;99.90;;;;;;4859922;29;19924;-91
2022/06/20 01:19:33;;;;;;;;;;;13.10;99.90;;;;;;4843493;29;19923;-91
2022/06/20 01:22:11;;;;;;;;;;;13.10;99.90;;;;;;4844343;29;20026;-91
2022/06/20 01:24:46;;;;;;;;;;;13.10;99.90;;;;;;4844315;29;19927;-91
2022/06/20 01:27:19;;;;;;;;;;;13.00;99.90;;;;;;4847717;29;19928;-91
2022/06/20 01:29:45;;;;;;;;;;;13.00;99.90;;;;;;4859292;29;19923;-91
2022/06/20 01:32:10;;;;;;;;;;;12.90;99.90;;;;;;4859488;29;19977;-91
2022/06/20 01:34:37;;;;;;;;;;;12.80;99.90;;;;;;4857971;29;20328;-91
2022/06/20 01:37:25;;;;;;;;;;;12.80;99.90;;;;;;4859820;29;19928;-91
2022/06/20 01:40:05;;;;;;;;;;;12.80;99.90;;;;;;4859742;29;20293;-91
2022/06/20 01:42:33;;;;;;;;;;;12.90;99.90;;;;;;4858804;29;20352;-91
2022/06/20 01:45:57;;;;;;;;;;;12.60;99.90;;;;;;4859483;29;19975;-91
2022/06/20 01:48:08;;;;;;;;;;;12.60;99.90;;;;;;4861849;29;19991;-90
2022/06/20 01:50:37;;;;;;;;;;;12.50;99.90;;;;;;4862712;29;20022;-91
2022/06/20 01:53:06;;;;;;;;;;;12.50;99.90;;;;;;4862190;29;20014;-91
2022/06/20 01:55:36;;;;;;;;;;;12.40;99.90;;;;;;4862044;29;19928;-91
2022/06/20 01:58:14;;;;;;;;;;;12.30;99.90;;;;;;4847389;29;19931;-92
2022/06/20 02:00:40;;;;;;;;;;;12.30;99.90;;;;;;4847684;29;20399;-91
2022/06/20 02:03:10;;;;;;;;;;;12.30;99.90;;;;;;4847237;29;19924;-92
2022/06/20 02:05:36;;;;;;;;;;;12.30;99.90;;;;;;4846815;29;20046;-91
2022/06/20 02:08:16;;;;;;;;;;;12.30;99.90;;;;;;4847394;29;20381;-91
2022/06/20 02:10:46;;;;;;;;;;;12.30;99.90;;;;;;4846303;29;19924;-91
2022/06/20 02:13:13;;;;;;;;;;;12.20;99.90;;;;;;4847117;29;19935;-91
2022/06/20 02:15:46;;;;;;;;;;;12.20;99.90;;;;;;4846550;29;19928;-91
2022/06/20 02:18:16;;;;;;;;;;;12.00;99.90;;;;;;4846835;29;19931;-91
2022/06/20 02:20:49;;;;;;;;;;;12.20;99.90;;;;;;4846245;29;20430;-92
2022/06/20 02:23:19;;;;;;;;;;;12.30;99.90;;;;;;4845874;29;20001;-91
2022/06/20 02:25:48;;;;;;;;;;;12.20;99.90;;;;;;4846956;29;19924;-91
2022/06/20 02:28:23;;;;;;;;;;;12.20;99.90;;;;;;4846631;29;19924;-90
2022/06/20 02:30:48;;;;;;;;;;;12.30;99.90;;;;;;4845971;29;19919;-91
2022/06/20 02:33:22;;;;;;;;;;;12.30;99.90;;;;;;4846567;29;19934;-91
2022/06/20 02:35:53;;;;;;;;;;;12.40;99.90;;;;;;4846772;29;19950;-91
2022/06/20 02:38:20;;;;;;;;;;;12.40;99.90;;;;;;4845950;29;19931;-91
2022/06/20 02:40:49;;;;;;;;;;;12.50;99.90;;;;;;4846788;29;20456;-91
2022/06/20 02:43:24;;;;;;;;;;;12.50;99.90;;;;;;4846784;29;19924;-91
2022/06/20 02:45:51;;;;;;;;;;;12.50;99.90;;;;;;4846279;29;20026;-91
2022/06/20 02:48:24;;;;;;;;;;;12.40;99.90;;;;;;4854832;29;19927;-91
2022/06/20 02:50:56;;;;;;;;;;;12.60;99.90;;;;;;4864071;29;19931;-90
2022/06/20 02:53:36;;;;;;;;;;;12.60;99.90;;;;;;4864330;29;19931;-91
2022/06/20 02:56:03;;;;;;;;;;;12.60;99.90;;;;;;4864808;29;19930;-91
2022/06/20 02:58:31;;;;;;;;;;;12.60;99.90;;;;;;4863549;29;20067;-90
2022/06/20 03:00:59;;;;;;;;;;;12.60;99.90;;;;;;4865147;29;19929;-91
2022/06/20 03:03:29;;;;;;;;;;;12.50;99.90;;;;;;4864297;29;19950;-91
2022/06/20 03:05:54;;;;;;;;;;;12.50;99.90;;;;;;4863588;29;20387;-91
2022/06/20 03:08:20;;;;;;;;;;;12.40;99.90;;;;;;4864322;29;19927;-91
2022/06/20 03:10:50;;;;;;;;;;;12.40;99.90;;;;;;4864587;29;19927;-91
2022/06/20 03:13:19;;;;;;;;;;;12.30;99.90;;;;;;4863589;29;20545;-90
2022/06/20 03:15:54;;;;;;;;;;;12.10;99.90;;;;;;4864774;29;20038;-91
2022/06/20 03:18:20;;;;;;;;;;;12.00;99.90;;;;;;4864416;29;19923;-92
2022/06/20 03:20:46;;;;;;;;;;;11.80;99.90;;;;;;4863806;29;20311;-91
2022/06/20 03:23:24;;;;;;;;;;;11.70;99.90;;;;;;4864297;29;19943;-91
2022/06/20 03:25:49;;;;;;;;;;;11.70;99.90;;;;;;4864236;29;19927;-91
2022/06/20 03:28:18;;;;;;;;;;;11.00;99.90;;;;;;4863544;29;19923;-90
2022/06/20 03:30:46;;;;;;;;;;;11.40;99.90;;;;;;4864653;29;19924;-91
2022/06/20 03:33:14;;;;;;;;;;;11.30;99.90;;;;;;4863462;29;19927;-90
2022/06/20 03:35:47;;;;;;;;;;;11.20;99.90;;;;;;4864127;29;19990;-91
2022/06/20 03:38:45;;;;;;;;;;;10.80;99.90;;;;;;4864064;29;19927;-91
2022/06/20 03:41:21;;;;;;;;;;;11.10;99.90;;;;;;4859576;29;19928;-92
2022/06/20 03:43:52;;;;;;;;;;;11.00;99.90;;;;;;4864332;29;19927;-93
2022/06/20 03:46:28;;;;;;;;;;;11.00;99.90;;;;;;4864032;29;20208;-91
2022/06/20 03:48:57;;;;;;;;;;;11.00;99.90;;;;;;4863893;29;19924;-91
2022/06/20 03:51:25;;;;;;;;;;;10.90;99.90;;;;;;4863226;29;19987;-90
2022/06/20 03:53:59;;;;;;;;;;;11.00;99.90;;;;;;4864335;29;19927;-91
2022/06/20 03:56:32;;;;;;;;;;;11.10;99.90;;;;;;4863128;29;19930;-91
2022/06/20 03:59:01;;;;;;;;;;;11.30;99.90;;;;;;4863778;29;20006;-90
2022/06/20 04:01:30;;;;;;;;;;;11.40;99.90;;;;;;4862357;29;19978;-91
2022/06/20 04:04:02;;;;;;;;;;;11.60;99.90;;;;;;4864092;29;20880;-91
2022/06/20 04:06:31;;;;;;;;;;;11.80;99.90;;;;;;4863473;29;19981;-91
2022/06/20 04:11:55;;;;;;;;;;;11.90;99.90;;;;;;4878697;29;19994;-91
2022/06/20 04:14:27;;;;;;;;;;;12.10;99.90;;;;;;4863264;29;19967;-90
2022/06/20 04:16:58;;;;;;;;;;;12.40;99.90;;;;;;4863548;29;19950;-91
2022/06/20 04:19:28;;;;;;;;;;;12.20;99.90;;;;;;4862204;29;19978;-90
2022/06/20 04:21:56;;;;;;;;;;;12.60;99.90;;;;;;4863667;29;19928;-90
2022/06/20 04:24:30;;;;;;;;;;;12.80;99.90;;;;;;4862109;29;19924;-91
2022/06/20 04:27:17;;;;;;;;;;;12.90;99.90;;;;;;4864037;29;19923;-91
2022/06/20 04:29:53;;;;;;;;;;;13.00;99.90;;;;;;4877971;29;19978;-89
2022/06/20 04:32:22;;;;;;;;;;;12.90;99.90;;;;;;4864439;29;19923;-93
2022/06/20 04:34:48;;;;;;;;;;;13.00;99.90;;;;;;4877867;29;19997;-91
2022/06/20 04:37:23;;;;;;;;;;;13.00;99.90;;;;;;4878171;29;20466;-91
2022/06/20 04:40:19;;;;;;;;;;;13.00;99.90;;;;;;4863387;29;19970;-91
2022/06/20 04:43:02;;;;;;;;;;;13.00;99.90;;;;;;4863434;29;19950;-91
2022/06/20 04:45:33;;;;;;;;;;;13.00;99.90;;;;;;4862521;29;19930;-91
2022/06/20 04:48:02;;;;;;;;;;;13.10;99.90;;;;;;4859893;29;19924;-91
2022/06/20 04:50:29;;;;;;;;;;;13.10;99.90;;;;;;4858302;29;20333;-94
2022/06/20 04:52:59;;;;;;;;;;;13.10;99.90;;;;;;4860516;29;19924;-91
2022/06/20 04:55:27;;;;;;;;;;;13.10;99.90;;;;;;4858866;29;19976;-91
2022/06/20 04:57:54;;;;;;;;;;;13.10;99.90;;;;;;4859731;29;19923;-91
2022/06/20 05:00:37;;;;;;;;;;;13.10;99.90;;;;;;4859371;29;19927;-92
2022/06/20 05:03:04;;;;;;;;;;;13.20;99.90;;;;;;4859331;29;20336;-92
2022/06/20 05:05:33;;;;;;;;;;;13.00;99.90;;;;;;4859041;29;20050;-91
2022/06/20 05:08:00;;;;;;;;;;;13.10;99.90;;;;;;4860268;29;19931;-90
2022/06/20 05:10:29;;;;;;;;;;;13.20;99.90;;;;;;4859607;29;19924;-91
2022/06/20 05:12:57;;;;;;;;;;;13.20;99.90;;;;;;4858864;29;19930;-91
2022/06/20 05:15:27;;;;;;;;;;;13.40;99.90;;;;;;4859618;29;19928;-91
2022/06/20 05:17:53;;;;;;;;;;;13.50;99.90;;;;;;4859956;29;19923;-91
2022/06/20 05:20:26;;;;;;;;;;;13.60;99.90;;;;;;4858424;29;19953;-92
2022/06/20 05:22:54;;;;;;;;;;;13.70;99.90;;;;;;4863649;29;19958;-91
2022/06/20 05:25:21;;;;;;;;;;;13.80;99.90;;;;;;4863194;29;19928;-91
2022/06/20 05:27:51;;;;;;;;;;;13.90;99.90;;;;;;4871324;29;19924;-92
2022/06/20 05:30:21;;;;;;;;;;;13.90;99.90;;;;;;4863327;29;19924;-90
2022/06/20 05:32:56;;;;;;;;;;;14.10;99.90;;;;;;4862764;29;20008;-92
2022/06/20 05:35:25;;;;;;;;;;;14.20;99.90;;;;;;4862390;29;20332;-92
2022/06/20 05:37:54;;;;;;;;;;;14.20;99.90;;;;;;4863409;29;20071;-91
2022/06/20 05:40:26;;;;;;;;;;;14.20;99.90;;;;;;4862770;29;19978;-92
2022/06/20 05:42:52;;;;;;;;;;;14.30;99.90;;;;;;4863351;29;19923;-92
2022/06/20 05:45:20;;;;;;;;;;;14.50;99.90;;;;;;4863138;29;20063;-91
2022/06/20 05:47:51;;;;;;;;;;;14.60;99.90;;;;;;4862555;29;20056;-92
2022/06/20 05:50:23;;;;;;;;;;;14.70;99.90;;;;;;4862097;29;20011;-91
2022/06/20 05:52:49;;;;;;;;;;;14.70;99.90;;;;;;4863251;29;20435;-91
2022/06/20 05:55:17;;;;;;;;;;;14.70;99.90;;;;;;4861380;29;20018;-94
2022/06/20 05:57:45;;;;;;;;;;;14.60;99.90;;;;;;4863711;29;19935;-91
2022/06/20 06:00:16;;;;;;;;;;;14.70;99.90;;;;;;4863020;29;19920;-92
2022/06/20 06:02:48;;;;;;;;;;;14.90;99.90;;;;;;4863085;29;19927;-93
2022/06/20 06:05:17;;;;;;;;;;;14.90;99.90;;;;;;4861922;29;20010;-92
2022/06/20 06:07:51;;;;;;;;;;;14.80;99.90;;;;;;4862975;29;19990;-92
2022/06/20 06:10:25;;;;;;;;;;;15.00;99.90;;;;;;4862851;29;20003;-91
2022/06/20 06:13:15;;;;;;;;;;;14.50;99.90;;;;;;4862413;29;19978;-92
2022/06/20 06:18:47;;;;;;;;;;;15.30;99.90;;;;;;4862376;29;19928;-92
2022/06/20 06:21:13;;;;;;;;;;;15.50;99.90;;;;;;4861551;29;20319;-93
2022/06/20 06:23:42;;;;;;;;;;;15.80;99.90;;;;;;4862217;29;19943;-92
2022/06/20 06:26:16;;;;;;;;;;;15.90;99.90;;;;;;4862141;29;19932;-93
2022/06/20 06:28:46;;;;;;;;;;;16.10;99.90;;;;;;4862868;29;19924;-92
2022/06/20 06:31:18;;;;;;;;;;;16.50;99.90;;;;;;4861452;29;19980;-92
2022/06/20 06:33:49;;;;;;;;;;;16.70;99.90;;;;;;4846528;29;19988;-92
2022/06/20 06:36:26;;;;;;;;;;;16.40;99.90;;;;;;4845110;29;20455;-91
2022/06/20 06:38:56;;;;;;;;;;;16.30;99.90;;;;;;4862868;29;19980;-92
2022/06/20 06:41:29;;;;;;;;;;;16.30;99.90;;;;;;4862265;29;19999;-92
2022/06/20 06:44:13;;;;;;;;;;;16.40;99.90;;;;;;4861806;29;19949;-92
2022/06/20 06:46:41;;;;;;;;;;;16.50;99.90;;;;;;4861943;29;19939;-91
2022/06/20 06:49:11;;;;;;;;;;;16.50;99.90;;;;;;4861755;29;20308;-93
2022/06/20 06:51:41;;;;;;;;;;;16.30;99.90;;;;;;4861248;29;20027;-91
2022/06/20 06:54:34;;;;;;;;;;;16.10;99.90;;;;;;4846225;29;19942;-92
2022/06/20 06:57:08;;;;;;;;;;;15.50;99.90;;;;;;4846107;29;19963;-91
2022/06/20 06:59:39;;;;;;;;;;;15.80;99.90;;;;;;4846407;29;19930;-92
2022/06/20 07:02:11;;;;;;;;;;;15.60;99.90;;;;;;4862057;29;20071;-91
2022/06/20 07:04:47;;;;;;;;;;;15.60;99.90;;;;;;4844874;29;19920;-91
2022/06/20 07:07:38;;;;;;;;;;;15.90;99.90;;;;;;4847351;29;19924;-93
2022/06/20 07:10:38;;;;;;;;;;;15.70;99.90;;;;;;4878585;29;20360;-94
2022/06/20 07:13:13;;;;;;;;;;;15.80;99.90;;;;;;4864544;29;19927;-92
2022/06/20 07:15:39;;;;;;;;;;;15.70;99.90;;;;;;4863272;29;20352;-92
2022/06/20 07:18:17;;;;;;;;;;;15.60;99.90;;;;;;4864928;29;20022;-91
2022/06/20 07:20:43;;;;;;;;;;;15.50;99.90;;;;;;4865407;29;20025;-90
2022/06/20 07:23:12;;;;;;;;;;;15.40;99.90;;;;;;4865318;29;19927;-92
2022/06/20 07:25:41;;;;;;;;;;;15.70;99.90;;;;;;4863751;29;20017;-92
2022/06/20 07:28:13;;;;;;;;;;;16.20;99.90;;;;;;4863916;29;19966;-92
2022/06/20 07:30:43;;;;;;;;;;;16.50;99.90;;;;;;4875790;29;19923;-92
2022/06/20 07:33:13;;;;;;;;;;;16.70;99.90;;;;;;4865258;29;20352;-93
2022/06/20 07:35:52;;;;;;;;;;;16.40;99.90;;;;;;4865707;29;20328;-91
2022/06/20 07:38:23;;;;;;;;;;;16.60;99.90;;;;;;4870590;29;19919;-91
2022/06/20 07:40:59;;;;;;;;;;;16.30;99.90;;;;;;4880686;29;19963;-93
2022/06/20 07:43:30;;;;;;;;;;;16.20;99.90;;;;;;4864685;29;19976;-92
2022/06/20 07:46:11;;;;;;;;;;;16.30;99.90;;;;;;4881637;29;19999;-91
2022/06/20 07:48:38;;;;;;;;;;;16.60;99.90;;;;;;4865083;29;19928;-94
2022/06/20 07:51:41;;;;;;;;;;;16.70;99.90;;;;;;4883813;29;19975;-94
2022/06/20 07:54:13;;;;;;;;;;;16.60;99.90;;;;;;4858299;29;19939;-91
2022/06/20 07:56:44;;;;;;;;;;;16.70;99.90;;;;;;4866722;29;19923;-92
2022/06/20 07:59:38;;;;;;;;;;;16.50;99.90;;;;;;4860370;29;19936;-92
2022/06/20 08:02:25;;;;;;;;;;;16.20;99.90;;;;;;4878504;29;19923;-93
2022/06/20 08:04:56;;;;;;;;;;;16.20;99.90;;;;;;4857525;29;20303;-92
2022/06/20 08:07:31;;;;;;;;;;;16.30;99.90;;;;;;4864283;29;20435;-92
2022/06/20 08:10:06;;;;;;;;;;;16.50;99.90;;;;;;4852133;29;20366;-95
2022/06/20 08:12:35;;;;;;;;;;;16.70;99.90;;;;;;4850651;29;20026;-93
2022/06/20 08:15:03;;;;;;;;;;;16.80;99.90;;;;;;4856866;29;20297;-93
2022/06/20 08:17:39;;;;;;;;;;;;;;;;;;;;;
2022/06/20 08:20:26;;;;;;;;;;;17.30;99.90;;;;;;4862473;29;20029;-92
2022/06/20 08:22:57;;;;;;;;;;;17.30;99.90;;;;;;4846599;29;19995;-93
2022/06/20 08:25:24;;;;;;;;;;;17.30;99.90;;;;;;4846949;29;20283;-92
2022/06/20 08:27:55;;;;;;;;;;;17.10;99.90;;;;;;4858876;29;19923;-93
2022/06/20 08:30:37;;;;;;;;;;;16.90;99.90;;;;;;4860220;29;20006;-92
2022/06/20 08:33:20;;;;;;;;;;;16.70;99.90;;;;;;4861581;29;19924;-90
2022/06/20 08:35:48;;;;;;;;;;;16.50;99.90;;;;;;4864565;29;20348;-92
2022/06/20 08:38:28;;;;;;;;;;;;;;;;;;;;;
2022/06/20 08:41:45;;;;;;;;;;;16.80;99.90;;;;;;4879475;29;19983;-92
2022/06/20 08:44:01;;;;;;;;;;;17.40;99.90;;;;;;4872265;29;19924;-90
2022/06/20 08:47:06;;;;;;;;;;;17.40;99.90;;;;;;4860599;29;19927;-91
2022/06/20 08:49:42;;;;;;;;;;;17.30;99.90;;;;;;4820835;29;19965;-91
2022/06/20 08:52:32;;;;;;;;;;;17.40;99.90;;;;;;4837942;29;19927;-88
2022/06/20 08:55:21;;;;;;;;;;;;;;;;;;;;;
2022/06/20 08:58:04;;;;;;;;;;;17.90;99.90;;;;;;4835051;29;19983;-91
2022/06/20 09:01:00;;;;;;;;;;;17.80;99.90;;;;;;4847532;29;19928;-91
2022/06/20 09:03:40;;;;;;;;;;;17.60;99.90;;;;;;4877198;29;19934;-89
2022/06/20 09:06:17;;;;;;;;;;;17.30;99.90;;;;;;4845138;29;20019;-93
2022/06/20 09:08:46;;;;;;;;;;;16.90;99.90;;;;;;4848041;29;20632;-92
2022/06/20 09:11:15;;;;;;;;;;;17.20;99.90;;;;;;4863091;29;19926;-92
2022/06/20 09:13:47;;;;;;;;;;;17.70;99.90;;;;;;4879646;29;20468;-92
2022/06/20 09:16:33;;;;;;;;;;;17.80;99.90;;;;;;4875850;29;19930;-93
2022/06/20 09:19:28;;;;;;;;;;;17.80;99.90;;;;;;4849646;29;20015;-94
2022/06/20 09:22:29;;;;;;;;;;;17.70;99.90;;;;;;4876259;29;19934;-92
2022/06/20 09:28:46;;;;;;;;;;;17.90;99.90;;;;;;4877839;29;19923;-92
2022/06/20 09:31:45;;;;;;;;;;;18.00;99.90;;;;;;4844753;29;19924;-94
2022/06/20 09:34:41;;;;;;;;;;;18.10;99.90;;;;;;4850127;29;19927;-89
2022/06/20 09:37:07;;;;;;;;;;;18.20;99.90;;;;;;4864995;29;19928;-91
2022/06/20 09:39:35;;;;;;;;;;;18.30;99.90;;;;;;4867806;29;19934;-92
2022/06/20 09:42:15;;;;;;;;;;;18.20;99.90;;;;;;4876431;29;19936;-92
2022/06/20 09:44:51;;;;;;;;;;;18.20;99.90;;;;;;4862362;29;20011;-91
2022/06/20 09:47:18;;;;;;;;;;;18.10;99.90;;;;;;4843072;29;19972;-91
2022/06/20 09:49:56;;;;;;;;;;;18.20;99.90;;;;;;4860148;29;19978;-92
2022/06/20 09:52:43;;;;;;;;;;;18.50;99.90;;;;;;4853097;29;19959;-92
2022/06/20 09:55:22;;;;;;;;;;;18.20;99.90;;;;;;4855872;29;20014;-91
2022/06/20 09:57:58;;;;;;;;;;;17.90;99.90;;;;;;4860614;29;19961;-90
2022/06/20 10:00:29;;;;;;;;;;;17.80;99.90;;;;;;4871236;29;19980;-90
2022/06/20 10:12:32;;;;;;;;;;;17.90;99.90;;;;;;4958013;23;19950;-88
2022/06/20 10:15:03;;;;;;;;;;;18.30;99.90;;;;;;4859345;29;19979;-90
2022/06/20 10:17:33;;;;;;;;;;;18.30;99.90;;;;;;4865567;29;19959;-89
2022/06/20 10:20:06;;;;;;;;;;;18.10;99.90;;;;;;4875085;29;19931;-91
2022/06/20 10:22:39;;;;;;;;;;;18.00;99.90;;;;;;4866419;29;19950;-92
2022/06/20 10:25:19;;;;;;;;;;;18.00;99.90;;;;;;4866041;29;19967;-93
2022/06/20 10:27:51;;;;;;;;;;;18.10;99.90;;;;;;4879484;29;19923;-91
2022/06/20 10:30:19;;;;;;;;;;;18.30;99.90;;;;;;4846571;29;19924;-92
2022/06/20 10:32:51;;;;;;;;;;;18.50;99.90;;;;;;4848791;29;19978;-91
2022/06/20 10:35:18;;;;;;;;;;;18.90;99.90;;;;;;4845556;29;19984;-91
2022/06/20 10:37:48;;;;;;;;;;;19.20;99.90;;;;;;4862842;29;19930;-90
2022/06/20 10:40:20;;;;;;;;;;;19.00;99.90;;;;;;4861766;29;20452;-90
2022/06/20 10:43:04;;;;;;;;;;;18.90;99.90;;;;;;4863488;29;19931;-91
2022/06/20 10:45:32;;;;;;;;;;;19.00;99.90;;;;;;4862807;29;19928;-91
2022/06/20 10:48:01;;;;;;;;;;;18.80;99.90;;;;;;4863365;29;19991;-95
2022/06/20 10:50:27;;;;;;;;;;;18.70;99.90;;;;;;4861855;29;20257;-92
2022/06/20 10:52:58;;;;;;;;;;;18.80;99.90;;;;;;4864436;29;19924;-92
2022/06/20 10:55:29;;;;;;;;;;;18.90;99.90;;;;;;4861368;29;20523;-90
2022/06/20 10:57:56;;;;;;;;;;;18.90;99.90;;;;;;4861333;29;19930;-90
2022/06/20 11:00:25;;;;;;;;;;;19.20;99.90;;;;;;4860457;29;20044;-87
2022/06/20 11:03:11;;;;;;;;;;;19.30;99.90;;;;;;4860210;29;19931;-87
2022/06/20 11:05:40;;;;;;;;;;;19.50;99.90;;;;;;4864755;29;20057;-87
2022/06/20 11:08:26;;;;;;;;;;;19.50;99.90;;;;;;4852949;29;19927;-87
2022/06/20 11:10:51;;;;;;;;;;;19.20;99.90;;;;;;4872723;29;20085;-88
2022/06/20 11:13:25;;;;;;;;;;;19.20;99.90;;;;;;4869953;29;20026;-87
2022/06/20 11:15:56;;;;;;;;;;;19.30;99.90;;;;;;4863840;29;19931;-87
2022/06/20 11:18:32;;;;;;;;;;;19.20;99.90;;;;;;4884238;29;19927;-87
2022/06/20 11:21:05;;;;;;;;;;;19.30;99.90;;;;;;4859299;29;19942;-87
2022/06/20 11:23:36;;;;;;;;;;;19.10;99.90;;;;;;4871875;29;19928;-87
2022/06/20 11:26:07;;;;;;;;;;;19.00;99.90;;;;;;4845654;29;20416;-87
2022/06/20 11:28:39;;;;;;;;;;;18.70;99.90;;;;;;4867632;29;20005;-87
2022/06/20 11:31:05;;;;;;;;;;;18.80;99.90;;;;;;4847030;29;20285;-87
2022/06/20 11:34:01;;;;;;;;;;;19.00;99.90;;;;;;4872265;29;19928;-87
2022/06/20 11:36:34;;;;;;;;;;;19.10;99.90;;;;;;4878408;29;19923;-88
2022/06/20 11:39:04;;;;;;;;;;;19.30;99.90;;;;;;4852394;29;20406;-86
2022/06/20 11:41:37;;;;;;;;;;;19.20;99.90;;;;;;4863447;29;20387;-91
2022/06/20 11:44:15;;;;;;;;;;;19.10;99.90;;;;;;4862373;29;20019;-90
2022/06/20 11:46:42;;;;;;;;;;;19.20;99.90;;;;;;4875429;29;19927;-89
2022/06/20 11:49:08;;;;;;;;;;;19.30;99.90;;;;;;4881091;29;20328;-91
2022/06/20 11:51:34;;;;;;;;;;;19.40;99.90;;;;;;4865969;29;19920;-89
2022/06/20 11:54:04;;;;;;;;;;;19.60;99.90;;;;;;4861429;29;20328;-90
2022/06/20 11:56:35;;;;;;;;;;;19.60;99.90;;;;;;4869308;29;20003;-92
2022/06/20 11:59:20;;;;;;;;;;;19.70;99.90;;;;;;4859733;29;19924;-94
2022/06/20 12:01:51;;;;;;;;;;;19.40;99.90;;;;;;4856973;29;19937;-93
2022/06/20 12:04:21;;;;;;;;;;;19.00;99.90;;;;;;4862088;29;20027;-92
2022/06/20 12:06:52;;;;;;;;;;;18.70;99.90;;;;;;4852982;29;19928;-93
2022/06/20 12:09:25;;;;;;;;;;;18.40;99.90;;;;;;4863144;29;20125;-92
2022/06/20 12:11:57;;;;;;;;;;;18.40;99.90;;;;;;4858017;29;19955;-92
2022/06/20 12:14:37;;;;;;;;;;;18.60;99.90;;;;;;4873674;29;19938;-94
2022/06/20 12:17:02;;;;;;;;;;;18.70;99.90;;;;;;4865961;29;19920;-92
2022/06/20 12:25:21;;;;;;;;;;;18.80;99.90;;;;;;4863360;29;19930;-93
2022/06/20 12:27:47;;;;;;;;;;;18.80;99.90;;;;;;4846848;29;19923;-93
2022/06/20 12:30:13;;;;;;;;;;;18.90;99.90;;;;;;4845928;29;20407;-94
2022/06/20 12:32:40;;;;;;;;;;;19.20;99.90;;;;;;4847173;29;19956;-93
2022/06/20 12:35:16;;;;;;;;;;;19.60;99.90;;;;;;4845584;29;20384;-93
2022/06/20 12:37:46;;;;;;;;;;;19.80;99.90;;;;;;4846348;29;19923;-94
2022/06/20 12:40:11;;;;;;;;;;;19.70;99.90;;;;;;4846914;29;20018;-93
2022/06/20 12:42:52;;;;;;;;;;;19.50;99.90;;;;;;4863102;29;20371;-93
2022/06/20 12:45:31;;;;;;;;;;;19.20;99.90;;;;;;4845985;29;19974;-93
2022/06/20 12:48:00;;;;;;;;;;;18.80;99.90;;;;;;4848433;29;19924;-93
2022/06/20 12:50:33;;;;;;;;;;;18.50;99.90;;;;;;4860503;29;19927;-93
2022/06/20 12:53:05;;;;;;;;;;;18.30;99.90;;;;;;4846477;29;20384;-92
2022/06/20 12:55:48;;;;;;;;;;;18.20;99.90;;;;;;4846799;29;20253;-92
2022/06/20 12:58:14;;;;;;;;;;;18.10;99.90;;;;;;4846607;29;20369;-93
2022/06/20 13:00:51;;;;;;;;;;;18.30;99.90;;;;;;4863452;29;19924;-92
2022/06/20 13:03:27;;;;;;;;;;;18.40;99.90;;;;;;4846638;29;20406;-92
2022/06/20 13:05:58;;;;;;;;;;;18.20;99.90;;;;;;4846014;29;19959;-92
2022/06/20 13:08:27;;;;;;;;;;;18.10;99.90;;;;;;4845792;29;19972;-92
2022/06/20 13:11:02;;;;;;;;;;;18.10;99.90;;;;;;4868873;29;19912;-92
2022/06/20 13:13:36;;;;;;;;;;;18.00;99.90;;;;;;4848934;29;19927;-92
2022/06/20 13:16:12;;;;;;;;;;;17.90;99.90;;;;;;4845525;29;19919;-92
2022/06/20 13:18:44;;;;;;;;;;;17.90;99.90;;;;;;4845573;29;19924;-92
2022/06/20 13:21:16;;;;;;;;;;;18.20;99.90;;;;;;4848030;29;20010;-93
2022/06/20 13:23:41;;;;;;;;;;;18.60;99.90;;;;;;4848041;29;19927;-92
2022/06/20 13:26:16;;;;;;;;;;;18.60;99.90;;;;;;4861918;29;19927;-92
2022/06/20 13:28:49;;;;;;;;;;;18.40;99.90;;;;;;4848675;29;19923;-92
2022/06/20 13:31:17;;;;;;;;;;;18.50;99.90;;;;;;4845783;29;19931;-93
2022/06/20 13:33:49;;;;;;;;;;;18.80;99.90;;;;;;4845821;29;19940;-93
2022/06/20 13:36:33;;;;;;;;;;;19.10;99.90;;;;;;4845795;29;19928;-93
2022/06/20 13:39:07;;;;;;;;;;;19.20;99.90;;;;;;4880181;29;20293;-93
2022/06/20 13:41:40;;;;;;;;;;;19.10;99.90;;;;;;4866706;29;19927;-92
2022/06/20 13:44:23;;;;;;;;;;;18.60;99.90;;;;;;4868398;29;19924;-92
2022/06/20 13:46:53;;;;;;;;;;;18.30;99.90;;;;;;4869625;29;19927;-92
2022/06/20 13:49:24;;;;;;;;;;;18.30;99.90;;;;;;4867845;29;19931;-93
2022/06/20 13:51:52;;;;;;;;;;;18.20;99.90;;;;;;4867868;29;20018;-92
2022/06/20 13:54:26;;;;;;;;;;;18.00;99.90;;;;;;4866906;29;19927;-93
2022/06/20 13:56:59;;;;;;;;;;;17.90;99.90;;;;;;4869861;29;19927;-92
2022/06/20 13:59:36;;;;;;;;;;;17.80;99.90;;;;;;4867305;29;20380;-93
2022/06/20 14:02:04;;;;;;;;;;;17.80;99.90;;;;;;4854901;29;19928;-91
2022/06/20 14:04:32;;;;;;;;;;;17.90;99.90;;;;;;4875960;29;20503;-89
2022/06/20 14:06:58;;;;;;;;;;;17.80;99.90;;;;;;4862428;29;19924;-90
2022/06/20 14:09:27;;;;;;;;;;;17.60;99.90;;;;;;4870937;29;19924;-90
2022/06/20 14:11:58;;;;;;;;;;;17.60;99.90;;;;;;4878330;29;19976;-90
2022/06/20 14:14:27;;;;;;;;;;;17.70;99.90;;;;;;4866707;29;20022;-90
2022/06/20 14:16:55;;;;;;;;;;;17.70;99.90;;;;;;4864792;29;19926;-89
2022/06/20 14:19:23;;;;;;;;;;;17.60;99.90;;;;;;4865961;29;20426;-88
2022/06/20 14:21:50;;;;;;;;;;;17.50;99.90;;;;;;4861248;29;19930;-87
2022/06/20 14:24:16;;;;;;;;;;;17.50;99.90;;;;;;4862429;29;19927;-88
2022/06/20 14:26:42;;;;;;;;;;;17.50;99.90;;;;;;4867020;29;20035;-89
2022/06/20 14:29:15;;;;;;;;;;;17.50;99.90;;;;;;4861725;29;19935;-89
2022/06/20 14:31:54;;;;;;;;;;;17.50;99.90;;;;;;4854143;29;20014;-89
2022/06/20 14:34:25;;;;;;;;;;;17.40;99.90;;;;;;4845365;29;19935;-89
2022/06/20 14:37:07;;;;;;;;;;;17.50;99.90;;;;;;4863552;29;20280;-90
2022/06/20 14:39:43;;;;;;;;;;;17.50;99.90;;;;;;4856403;29;19959;-90
2022/06/20 14:42:18;;;;;;;;;;;17.50;99.90;;;;;;4862432;29;19932;-89
2022/06/20 14:44:49;;;;;;;;;;;17.50;99.90;;;;;;4861808;29;20054;-89
2022/06/20 14:47:18;;;;;;;;;;;17.60;99.90;;;;;;4868332;29;20022;-89
2022/06/20 14:49:47;;;;;;;;;;;17.70;99.90;;;;;;4868740;29;19934;-89
2022/06/20 14:52:19;;;;;;;;;;;17.60;99.90;;;;;;4857270;29;19974;-89
2022/06/20 14:54:50;;;;;;;;;;;17.50;99.90;;;;;;4860869;29;19930;-89
2022/06/20 14:57:22;;;;;;;;;;;17.30;99.90;;;;;;4861519;29;20435;-89
2022/06/20 14:59:58;;;;;;;;;;;17.00;99.90;;;;;;4864049;29;20117;-89
2022/06/20 15:02:42;;;;;;;;;;;16.90;99.90;;;;;;4861294;29;19978;-88
2022/06/20 15:05:18;;;;;;;;;;;16.90;99.90;;;;;;4863961;29;20376;-89
2022/06/20 15:07:46;;;;;;;;;;;17.20;99.90;;;;;;4868841;29;19930;-88
2022/06/20 15:10:11;;;;;;;;;;;17.40;99.90;;;;;;4860209;29;20435;-90
2022/06/20 15:12:41;;;;;;;;;;;17.50;99.90;;;;;;4863149;29;19928;-89
2022/06/20 15:15:06;;;;;;;;;;;17.60;99.90;;;;;;4861887;29;19946;-89
2022/06/20 15:17:42;;;;;;;;;;;17.90;99.90;;;;;;4876930;29;20383;-89
2022/06/20 15:20:07;;;;;;;;;;;18.00;99.90;;;;;;4861876;29;19930;-89